createdAt,value
2018-05-14T00:00:39.880Z,16.09
2018-05-14T00:01:40.595Z,16.04
2018-05-14T00:02:41.312Z,16.04
2018-05-14T00:03:42.049Z,16.02
2018-05-14T00:04:42.752Z,16.13
2018-05-14T00:05:43.485Z,16.15
2018-05-14T00:06:44.203Z,16.01
2018-05-14T00:07:44.919Z,16.01
2018-05-14T00:08:45.634Z,16.04
2018-05-14T00:09:46.351Z,16.05
2018-05-14T00:10:47.068Z,16.05
2018-05-14T00:11:47.799Z,16.04
2018-05-14T00:12:48.515Z,16.04
2018-05-14T00:13:49.232Z,16.05
2018-05-14T00:14:49.951Z,15.98
2018-05-14T00:15:50.669Z,15.98
2018-05-14T00:16:51.399Z,16.01
2018-05-14T00:17:52.121Z,16.00
2018-05-14T00:18:52.834Z,15.97
2018-05-14T00:19:53.551Z,15.98
2018-05-14T00:20:54.268Z,15.97
2018-05-14T00:21:54.985Z,15.98
2018-05-14T00:22:55.708Z,16.00
2018-05-14T00:23:56.418Z,16.00
2018-05-14T00:24:57.137Z,15.98
2018-05-14T00:25:57.857Z,16.02
2018-05-14T00:26:58.577Z,15.98
2018-05-14T00:27:59.305Z,16.01
2018-05-14T00:29:00.024Z,16.01
2018-05-14T00:30:00.741Z,15.97
2018-05-14T00:31:01.456Z,15.95
2018-05-14T00:32:02.190Z,16.04
2018-05-14T00:33:02.918Z,15.97
2018-05-14T00:34:03.635Z,16.00
2018-05-14T00:35:04.350Z,16.00
2018-05-14T00:36:05.068Z,15.98
2018-05-14T00:37:05.783Z,15.92
2018-05-14T00:38:06.498Z,16.01
2018-05-14T00:39:07.216Z,16.04
2018-05-14T00:40:07.933Z,15.95
2018-05-14T00:41:08.653Z,16.00
2018-05-14T00:42:09.369Z,15.95
2018-05-14T00:43:10.085Z,15.94
2018-05-14T00:44:10.803Z,15.97
2018-05-14T00:45:11.519Z,16.00
2018-05-14T00:46:12.236Z,15.94
2018-05-14T00:47:12.963Z,15.97
2018-05-14T00:48:13.676Z,16.00
2018-05-14T00:49:14.395Z,16.01
2018-05-14T00:50:15.119Z,15.95
2018-05-14T00:51:15.844Z,15.97
2018-05-14T00:52:16.559Z,15.88
2018-05-14T00:53:17.275Z,15.94
2018-05-14T00:54:17.992Z,16.00
2018-05-14T00:55:18.719Z,16.02
2018-05-14T00:56:19.450Z,15.95
2018-05-14T00:57:20.163Z,15.94
2018-05-14T00:58:20.889Z,15.97
2018-05-14T00:59:21.605Z,15.98
2018-05-14T01:00:22.320Z,16.01
2018-05-14T01:01:23.034Z,16.02
2018-05-14T01:02:23.753Z,16.02
2018-05-14T01:03:24.519Z,15.98
2018-05-14T01:04:25.190Z,15.95
2018-05-14T01:05:25.907Z,16.08
2018-05-14T01:06:26.636Z,15.94
2018-05-14T01:07:27.346Z,16.00
2018-05-14T01:08:28.074Z,16.01
2018-05-14T01:09:28.789Z,16.00
2018-05-14T01:10:29.516Z,16.00
2018-05-14T01:11:30.230Z,15.97
2018-05-14T01:12:30.957Z,16.02
2018-05-14T01:13:31.682Z,16.00
2018-05-14T01:14:32.397Z,16.01
2018-05-14T01:15:33.111Z,16.00
2018-05-14T01:16:33.838Z,16.00
2018-05-14T01:17:34.567Z,16.01
2018-05-14T01:18:35.283Z,15.98
2018-05-14T01:19:35.995Z,16.01
2018-05-14T01:20:36.710Z,15.97
2018-05-14T01:21:37.457Z,16.02
2018-05-14T01:22:38.152Z,16.05
2018-05-14T01:23:38.866Z,15.97
2018-05-14T01:24:39.591Z,16.00
2018-05-14T01:25:40.363Z,16.04
2018-05-14T01:26:41.021Z,15.98
2018-05-14T01:27:41.735Z,15.97
2018-05-14T01:28:42.449Z,16.01
2018-05-14T01:29:43.176Z,16.00
2018-05-14T01:30:43.889Z,15.97
2018-05-14T01:31:44.614Z,16.02
2018-05-14T01:32:45.340Z,15.98
2018-05-14T01:33:46.055Z,15.94
2018-05-14T01:34:46.783Z,16.04
2018-05-14T01:35:47.500Z,15.98
2018-05-14T01:36:48.216Z,16.00
2018-05-14T01:37:48.932Z,16.00
2018-05-14T01:38:49.647Z,16.01
2018-05-14T01:39:50.360Z,16.04
2018-05-14T01:40:51.076Z,15.95
2018-05-14T01:41:51.790Z,15.98
2018-05-14T01:42:52.504Z,16.01
2018-05-14T01:43:53.217Z,16.04
2018-05-14T01:44:53.932Z,16.00
2018-05-14T01:45:54.647Z,16.02
2018-05-14T01:46:55.371Z,16.04
2018-05-14T01:47:56.086Z,16.02
2018-05-14T01:48:56.812Z,16.10
2018-05-14T01:49:57.527Z,16.12
2018-05-14T01:50:58.244Z,16.09
2018-05-14T01:51:58.955Z,16.01
2018-05-14T01:52:59.681Z,16.10
2018-05-14T01:54:00.395Z,16.01
2018-05-14T01:55:01.121Z,16.10
2018-05-14T01:56:01.836Z,16.10
2018-05-14T01:57:02.560Z,15.98
2018-05-14T01:58:03.274Z,16.04
2018-05-14T01:59:03.994Z,16.04
2018-05-14T02:00:04.704Z,16.01
2018-05-14T02:01:05.423Z,16.05
2018-05-14T02:02:06.149Z,16.09
2018-05-14T02:03:06.865Z,16.13
2018-05-14T02:04:07.581Z,16.10
2018-05-14T02:05:08.294Z,16.12
2018-05-14T02:06:09.010Z,16.09
2018-05-14T02:07:09.735Z,16.01
2018-05-14T02:08:10.450Z,16.12
2018-05-14T02:09:11.176Z,16.12
2018-05-14T02:10:11.889Z,16.09
2018-05-14T02:11:12.617Z,16.09
2018-05-14T02:12:13.332Z,16.12
2018-05-14T02:13:14.049Z,16.16
2018-05-14T02:14:14.764Z,16.15
2018-05-14T02:15:15.480Z,16.13
2018-05-14T02:16:16.195Z,16.05
2018-05-14T02:17:16.909Z,16.09
2018-05-14T02:18:17.623Z,16.09
2018-05-14T02:19:18.337Z,16.10
2018-05-14T02:20:19.053Z,16.08
2018-05-14T02:21:19.764Z,16.10
2018-05-14T02:22:20.478Z,16.08
2018-05-14T02:23:21.192Z,16.09
2018-05-14T02:24:21.908Z,16.01
2018-05-14T02:25:22.635Z,16.05
2018-05-14T02:26:23.349Z,15.98
2018-05-14T02:27:24.062Z,15.98
2018-05-14T02:28:24.777Z,16.01
2018-05-14T02:29:25.537Z,16.00
2018-05-14T02:30:26.217Z,16.00
2018-05-14T02:31:26.944Z,16.04
2018-05-14T02:32:27.657Z,16.01
2018-05-14T02:33:28.371Z,15.98
2018-05-14T02:34:29.099Z,15.94
2018-05-14T02:35:29.810Z,16.00
2018-05-14T02:36:30.524Z,15.98
2018-05-14T02:37:31.240Z,16.00
2018-05-14T02:38:31.951Z,15.98
2018-05-14T02:39:32.664Z,15.97
2018-05-14T02:40:33.378Z,15.97
2018-05-14T02:41:34.095Z,16.00
2018-05-14T02:42:34.804Z,16.02
2018-05-14T02:43:35.519Z,15.98
2018-05-14T02:44:36.243Z,16.00
2018-05-14T02:45:36.957Z,16.04
2018-05-14T02:46:37.682Z,15.95
2018-05-14T02:47:38.396Z,15.97
2018-05-14T02:48:39.112Z,16.00
2018-05-14T02:49:39.835Z,16.00
2018-05-14T02:50:40.561Z,15.94
2018-05-14T02:51:41.273Z,16.01
2018-05-14T02:52:41.997Z,16.02
2018-05-14T02:53:42.711Z,15.97
2018-05-14T02:54:43.425Z,15.92
2018-05-14T02:55:44.144Z,15.94
2018-05-14T02:56:44.858Z,15.97
2018-05-14T02:57:45.580Z,16.00
2018-05-14T02:58:46.292Z,15.88
2018-05-14T02:59:47.006Z,15.92
2018-05-14T03:00:47.733Z,15.91
2018-05-14T03:01:48.448Z,15.91
2018-05-14T03:02:49.162Z,15.97
2018-05-14T03:03:49.875Z,15.88
2018-05-14T03:04:50.615Z,15.97
2018-05-14T03:05:51.304Z,15.88
2018-05-14T03:06:52.039Z,15.88
2018-05-14T03:07:52.742Z,15.88
2018-05-14T03:08:53.455Z,15.95
2018-05-14T03:09:54.174Z,15.88
2018-05-14T03:10:54.882Z,15.92
2018-05-14T03:11:55.597Z,15.91
2018-05-14T03:12:56.318Z,15.90
2018-05-14T03:13:57.045Z,15.91
2018-05-14T03:14:57.771Z,15.95
2018-05-14T03:15:58.488Z,15.91
2018-05-14T03:16:59.213Z,15.88
2018-05-14T03:17:59.939Z,15.86
2018-05-14T03:19:00.665Z,15.88
2018-05-14T03:20:01.382Z,15.83
2018-05-14T03:21:02.097Z,15.91
2018-05-14T03:22:02.814Z,15.88
2018-05-14T03:23:03.528Z,15.84
2018-05-14T03:24:04.254Z,15.84
2018-05-14T03:25:04.968Z,15.80
2018-05-14T03:26:05.692Z,15.80
2018-05-14T03:27:06.408Z,15.94
2018-05-14T03:28:07.123Z,15.80
2018-05-14T03:29:07.838Z,15.80
2018-05-14T03:30:08.549Z,15.83
2018-05-14T03:31:09.277Z,15.80
2018-05-14T03:32:09.991Z,15.91
2018-05-14T03:33:10.711Z,15.83
2018-05-14T03:34:11.424Z,15.86
2018-05-14T03:35:12.139Z,15.90
2018-05-14T03:36:12.854Z,15.83
2018-05-14T03:37:13.571Z,15.86
2018-05-14T03:38:14.284Z,15.84
2018-05-14T03:39:15.012Z,15.79
2018-05-14T03:40:15.728Z,15.79
2018-05-14T03:41:16.442Z,15.68
2018-05-14T03:42:17.158Z,15.73
2018-05-14T03:43:17.873Z,15.72
2018-05-14T03:44:18.604Z,15.73
2018-05-14T03:45:19.320Z,15.67
2018-05-14T03:46:20.034Z,15.76
2018-05-14T03:47:20.751Z,15.76
2018-05-14T03:48:21.466Z,15.73
2018-05-14T03:49:22.181Z,15.77
2018-05-14T03:50:22.908Z,15.70
2018-05-14T03:51:23.625Z,15.73
2018-05-14T03:52:24.354Z,15.73
2018-05-14T03:53:25.071Z,15.73
2018-05-14T03:54:25.789Z,15.77
2018-05-14T03:55:26.505Z,15.70
2018-05-14T03:56:27.221Z,15.76
2018-05-14T03:57:27.939Z,15.75
2018-05-14T03:58:28.668Z,15.79
2018-05-14T03:59:29.382Z,15.77
2018-05-14T04:00:30.111Z,15.76
2018-05-14T04:01:30.839Z,15.77
2018-05-14T04:02:31.556Z,15.82
2018-05-14T04:03:32.286Z,15.82
2018-05-14T04:04:33.008Z,15.77
2018-05-14T04:05:33.722Z,15.76
2018-05-14T04:06:34.440Z,15.79
2018-05-14T04:07:35.157Z,15.76
2018-05-14T04:08:35.875Z,15.83
2018-05-14T04:09:36.614Z,15.82
2018-05-14T04:10:37.332Z,15.82
2018-05-14T04:11:38.062Z,15.83
2018-05-14T04:12:38.787Z,15.79
2018-05-14T04:13:39.505Z,15.76
2018-05-14T04:14:40.221Z,15.80
2018-05-14T04:15:40.940Z,15.82
2018-05-14T04:16:41.657Z,15.80
2018-05-14T04:17:42.375Z,15.77
2018-05-14T04:18:43.097Z,15.79
2018-05-14T04:19:43.809Z,15.79
2018-05-14T04:20:44.538Z,15.82
2018-05-14T04:21:45.256Z,15.76
2018-05-14T04:22:45.974Z,15.80
2018-05-14T04:23:46.690Z,15.79
2018-05-14T04:24:47.406Z,15.90
2018-05-14T04:25:48.123Z,15.77
2018-05-14T04:26:48.843Z,15.82
2018-05-14T04:27:49.564Z,15.77
2018-05-14T04:28:50.284Z,15.79
2018-05-14T04:29:50.998Z,15.79
2018-05-14T04:30:51.718Z,15.82
2018-05-14T04:31:52.432Z,15.83
2018-05-14T04:32:53.162Z,15.73
2018-05-14T04:33:53.885Z,15.84
2018-05-14T04:34:54.615Z,15.88
2018-05-14T04:35:55.332Z,15.76
2018-05-14T04:36:56.050Z,15.79
2018-05-14T04:37:56.769Z,15.88
2018-05-14T04:38:57.489Z,15.80
2018-05-14T04:39:58.219Z,15.79
2018-05-14T04:40:58.937Z,15.82
2018-05-14T04:41:59.665Z,15.75
2018-05-14T04:43:00.397Z,15.76
2018-05-14T04:44:01.128Z,15.76
2018-05-14T04:45:01.846Z,15.75
2018-05-14T04:46:02.564Z,15.73
2018-05-14T04:47:03.282Z,15.76
2018-05-14T04:48:04.001Z,15.75
2018-05-14T04:49:04.718Z,15.80
2018-05-14T04:50:05.438Z,15.79
2018-05-14T04:51:06.158Z,15.72
2018-05-14T04:52:06.877Z,15.82
2018-05-14T04:53:07.595Z,15.86
2018-05-14T04:54:08.323Z,15.79
2018-05-14T04:55:09.041Z,15.86
2018-05-14T04:56:09.758Z,15.77
2018-05-14T04:57:10.476Z,15.80
2018-05-14T04:58:11.197Z,15.94
2018-05-14T04:59:12.017Z,15.84
2018-05-14T05:00:12.643Z,15.86
2018-05-14T05:01:13.361Z,15.83
2018-05-14T05:02:14.083Z,15.90
2018-05-14T05:03:14.812Z,16.02
2018-05-14T05:04:15.531Z,15.97
2018-05-14T05:05:16.248Z,15.95
2018-05-14T05:06:16.965Z,15.97
2018-05-14T05:07:17.685Z,16.00
2018-05-14T05:08:18.403Z,15.95
2018-05-14T05:09:19.125Z,15.91
2018-05-14T05:10:19.879Z,16.02
2018-05-14T05:11:20.574Z,16.02
2018-05-14T05:12:21.289Z,16.02
2018-05-14T05:13:22.008Z,16.04
2018-05-14T05:14:22.725Z,16.09
2018-05-14T05:15:23.449Z,16.02
2018-05-14T05:16:24.166Z,16.02
2018-05-14T05:17:24.889Z,15.97
2018-05-14T05:18:25.617Z,16.09
2018-05-14T05:19:26.334Z,16.13
2018-05-14T05:20:27.052Z,16.15
2018-05-14T05:21:27.783Z,16.10
2018-05-14T05:22:28.504Z,16.15
2018-05-14T05:23:29.233Z,16.12
2018-05-14T05:24:29.953Z,16.16
2018-05-14T05:25:30.680Z,16.16
2018-05-14T05:26:31.399Z,16.23
2018-05-14T05:27:32.128Z,16.15
2018-05-14T05:28:32.849Z,16.31
2018-05-14T05:29:33.573Z,16.35
2018-05-14T05:30:34.298Z,16.35
2018-05-14T05:31:35.029Z,16.33
2018-05-14T05:32:35.751Z,16.35
2018-05-14T05:33:36.480Z,16.41
2018-05-14T05:34:37.327Z,16.36
2018-05-14T05:35:37.932Z,16.51
2018-05-14T05:36:38.660Z,16.50
2018-05-14T05:37:39.492Z,16.50
2018-05-14T05:38:40.115Z,16.57
2018-05-14T05:39:40.844Z,16.54
2018-05-14T05:40:41.565Z,16.42
2018-05-14T05:41:42.294Z,16.51
2018-05-14T05:42:43.016Z,16.53
2018-05-14T05:43:43.737Z,16.46
2018-05-14T05:44:44.456Z,16.42
2018-05-14T05:45:45.176Z,16.51
2018-05-14T05:46:45.897Z,16.53
2018-05-14T05:47:46.618Z,16.51
2018-05-14T05:48:47.342Z,16.64
2018-05-14T05:49:48.058Z,16.69
2018-05-14T05:50:48.779Z,16.58
2018-05-14T05:51:49.501Z,16.76
2018-05-14T05:52:50.221Z,16.87
2018-05-14T05:53:50.942Z,16.90
2018-05-14T05:54:51.664Z,17.01
2018-05-14T05:55:52.385Z,17.05
2018-05-14T05:56:53.111Z,17.12
2018-05-14T05:57:53.828Z,17.19
2018-05-14T05:58:54.550Z,17.11
2018-05-14T05:59:55.270Z,17.20
2018-05-14T06:00:55.991Z,17.22
2018-05-14T06:01:56.712Z,17.22
2018-05-14T06:02:57.434Z,17.33
2018-05-14T06:03:58.155Z,17.30
2018-05-14T06:04:58.891Z,17.33
2018-05-14T06:05:59.610Z,17.41
2018-05-14T06:07:00.332Z,17.39
2018-05-14T06:08:01.053Z,17.36
2018-05-14T06:09:01.773Z,17.33
2018-05-14T06:10:02.495Z,17.41
2018-05-14T06:11:03.217Z,17.44
2018-05-14T06:12:03.941Z,17.48
2018-05-14T06:13:04.663Z,17.48
2018-05-14T06:14:05.382Z,17.51
2018-05-14T06:15:06.118Z,17.57
2018-05-14T06:16:06.852Z,17.67
2018-05-14T06:17:07.574Z,17.79
2018-05-14T06:18:08.298Z,17.79
2018-05-14T06:19:09.021Z,17.90
2018-05-14T06:20:09.742Z,17.89
2018-05-14T06:21:10.466Z,18.04
2018-05-14T06:22:11.191Z,18.11
2018-05-14T06:23:11.916Z,18.40
2018-05-14T06:24:12.647Z,18.31
2018-05-14T06:25:13.371Z,18.18
2018-05-14T06:26:14.108Z,18.31
2018-05-14T06:27:14.826Z,18.28
2018-05-14T06:28:15.546Z,18.25
2018-05-14T06:29:16.268Z,18.23
2018-05-14T06:30:16.990Z,18.28
2018-05-14T06:31:17.718Z,18.23
2018-05-14T06:32:18.436Z,18.20
2018-05-14T06:33:19.172Z,18.28
2018-05-14T06:34:19.891Z,18.38
2018-05-14T06:35:20.615Z,18.38
2018-05-14T06:36:21.350Z,18.33
2018-05-14T06:37:22.071Z,18.35
2018-05-14T06:38:22.806Z,18.37
2018-05-14T06:39:23.526Z,18.43
2018-05-14T06:40:24.249Z,18.49
2018-05-14T06:41:24.985Z,18.56
2018-05-14T06:42:25.704Z,18.55
2018-05-14T06:43:26.642Z,18.49
2018-05-14T06:44:27.217Z,18.47
2018-05-14T06:45:27.880Z,18.58
2018-05-14T06:46:28.614Z,18.62
2018-05-14T06:47:29.335Z,18.56
2018-05-14T06:48:30.069Z,18.52
2018-05-14T06:49:30.791Z,18.47
2018-05-14T06:50:31.524Z,18.44
2018-05-14T06:51:32.247Z,18.33
2018-05-14T06:52:32.970Z,18.47
2018-05-14T06:53:33.690Z,18.45
2018-05-14T06:54:34.414Z,18.59
2018-05-14T06:55:35.146Z,18.71
2018-05-14T06:56:35.869Z,18.70
2018-05-14T06:57:36.589Z,18.70
2018-05-14T06:58:37.311Z,18.73
2018-05-14T06:59:38.031Z,18.80
2018-05-14T07:00:38.764Z,18.73
2018-05-14T07:01:39.497Z,18.81
2018-05-14T07:02:40.219Z,18.93
2018-05-14T07:03:40.955Z,18.89
2018-05-14T07:04:41.677Z,19.00
2018-05-14T07:05:42.408Z,19.04
2018-05-14T07:06:43.130Z,19.04
2018-05-14T07:07:43.851Z,19.14
2018-05-14T07:08:44.574Z,19.24
2018-05-14T07:09:45.296Z,19.33
2018-05-14T07:10:46.088Z,19.27
2018-05-14T07:11:46.740Z,19.29
2018-05-14T07:12:47.461Z,19.47
2018-05-14T07:13:48.186Z,19.55
2018-05-14T07:14:48.912Z,19.64
2018-05-14T07:15:49.650Z,19.76
2018-05-14T07:16:50.376Z,19.86
2018-05-14T07:17:51.104Z,19.91
2018-05-14T07:18:51.830Z,19.91
2018-05-14T07:19:52.558Z,19.96
2018-05-14T07:20:53.301Z,19.99
2018-05-14T07:21:54.040Z,20.13
2018-05-14T07:22:54.775Z,20.18
2018-05-14T07:23:55.530Z,20.16
2018-05-14T07:24:56.232Z,20.39
2018-05-14T07:25:56.975Z,20.50
2018-05-14T07:26:57.706Z,20.60
2018-05-14T07:27:58.441Z,20.66
2018-05-14T07:28:59.187Z,20.59
2018-05-14T07:29:59.920Z,20.58
2018-05-14T07:31:00.656Z,20.70
2018-05-14T07:32:01.388Z,20.81
2018-05-14T07:33:02.121Z,20.96
2018-05-14T07:34:02.856Z,21.18
2018-05-14T07:35:03.593Z,21.29
2018-05-14T07:36:04.327Z,21.43
2018-05-14T07:37:05.067Z,21.60
2018-05-14T07:38:05.811Z,21.72
2018-05-14T07:39:06.548Z,21.61
2018-05-14T07:40:07.284Z,21.77
2018-05-14T07:41:08.014Z,21.54
2018-05-14T07:42:08.746Z,21.70
2018-05-14T07:43:09.490Z,21.80
2018-05-14T07:44:10.223Z,21.82
2018-05-14T07:45:10.967Z,21.89
2018-05-14T07:46:11.699Z,22.11
2018-05-14T07:47:12.444Z,22.32
2018-05-14T07:48:13.179Z,22.39
2018-05-14T07:49:13.911Z,22.62
2018-05-14T07:50:14.645Z,22.90
2018-05-14T07:51:15.390Z,22.87
2018-05-14T07:52:16.125Z,22.91
2018-05-14T07:53:16.859Z,23.09
2018-05-14T07:54:17.595Z,23.08
2018-05-14T07:55:18.337Z,23.10
2018-05-14T07:56:19.072Z,23.36
2018-05-14T07:57:19.869Z,23.36
2018-05-14T07:58:20.564Z,23.54
2018-05-14T07:59:21.300Z,23.40
2018-05-14T08:00:22.102Z,23.65
2018-05-14T08:01:22.778Z,23.76
2018-05-14T08:02:23.525Z,23.77
2018-05-14T08:03:24.258Z,23.68
2018-05-14T08:04:24.993Z,23.78
2018-05-14T08:05:25.729Z,23.92
2018-05-14T08:06:26.472Z,23.81
2018-05-14T08:07:27.220Z,23.96
2018-05-14T08:08:27.940Z,23.95
2018-05-14T08:09:28.680Z,24.08
2018-05-14T08:10:29.417Z,24.14
2018-05-14T08:11:30.156Z,24.18
2018-05-14T08:12:30.901Z,24.40
2018-05-14T08:13:31.640Z,24.53
2018-05-14T08:14:32.376Z,24.74
2018-05-14T08:15:33.123Z,24.91
2018-05-14T08:16:33.857Z,24.96
2018-05-14T08:17:34.591Z,25.08
2018-05-14T08:18:35.329Z,25.10
2018-05-14T08:19:36.069Z,25.08
2018-05-14T08:20:36.797Z,25.16
2018-05-14T08:21:37.533Z,25.29
2018-05-14T08:22:38.276Z,25.55
2018-05-14T08:23:39.003Z,25.65
2018-05-14T08:24:39.741Z,25.73
2018-05-14T08:25:40.476Z,25.88
2018-05-14T08:26:41.212Z,26.09
2018-05-14T08:27:41.959Z,25.78
2018-05-14T08:28:42.696Z,25.53
2018-05-14T08:29:43.443Z,25.51
2018-05-14T08:30:44.180Z,25.77
2018-05-14T08:31:44.928Z,25.77
2018-05-14T08:32:45.665Z,25.99
2018-05-14T08:33:46.404Z,26.23
2018-05-14T08:34:47.142Z,26.25
2018-05-14T08:35:47.894Z,26.44
2018-05-14T08:36:48.637Z,26.58
2018-05-14T08:37:49.385Z,26.47
2018-05-14T08:38:50.129Z,26.58
2018-05-14T08:39:50.884Z,26.38
2018-05-14T08:40:51.633Z,26.63
2018-05-14T08:41:52.369Z,26.58
2018-05-14T08:42:53.109Z,26.80
2018-05-14T08:43:53.850Z,27.02
2018-05-14T08:44:54.605Z,27.00
2018-05-14T08:45:55.353Z,27.25
2018-05-14T08:46:56.152Z,27.29
2018-05-14T08:47:56.946Z,27.29
2018-05-14T08:48:57.598Z,27.17
2018-05-14T08:49:58.358Z,27.26
2018-05-14T08:50:59.120Z,27.52
2018-05-14T08:51:59.861Z,27.65
2018-05-14T08:53:00.603Z,27.78
2018-05-14T08:54:01.444Z,27.86
2018-05-14T08:55:02.099Z,28.05
2018-05-14T08:56:02.840Z,28.10
2018-05-14T08:57:03.583Z,28.26
2018-05-14T08:58:04.327Z,28.33
2018-05-14T08:59:05.072Z,28.29
2018-05-14T09:00:05.863Z,28.01
2018-05-14T09:01:06.571Z,28.00
2018-05-14T09:02:07.314Z,28.04
2018-05-14T09:03:08.055Z,27.90
2018-05-14T09:04:08.800Z,27.98
2018-05-14T09:05:09.547Z,28.12
2018-05-14T09:06:10.303Z,27.98
2018-05-14T09:07:11.050Z,28.01
2018-05-14T09:08:11.792Z,28.12
2018-05-14T09:09:12.534Z,28.08
2018-05-14T09:10:13.278Z,28.25
2018-05-14T09:11:14.021Z,28.22
2018-05-14T09:12:14.775Z,28.44
2018-05-14T09:13:15.519Z,28.45
2018-05-14T09:14:16.275Z,28.48
2018-05-14T09:15:17.018Z,28.57
2018-05-14T09:16:17.762Z,28.66
2018-05-14T09:17:18.517Z,28.84
2018-05-14T09:18:19.264Z,29.13
2018-05-14T09:19:20.052Z,29.17
2018-05-14T09:20:20.751Z,29.26
2018-05-14T09:21:21.491Z,29.51
2018-05-14T09:22:22.246Z,29.57
2018-05-14T09:23:23.003Z,29.61
2018-05-14T09:24:23.749Z,29.19
2018-05-14T09:25:24.543Z,29.66
2018-05-14T09:26:25.245Z,29.81
2018-05-14T09:27:25.990Z,29.75
2018-05-14T09:28:26.733Z,29.68
2018-05-14T09:29:27.474Z,29.63
2018-05-14T09:30:28.213Z,29.90
2018-05-14T09:31:28.965Z,30.19
2018-05-14T09:32:29.707Z,30.32
2018-05-14T09:33:30.445Z,30.03
2018-05-14T09:34:31.191Z,29.84
2018-05-14T09:35:31.930Z,30.08
2018-05-14T09:36:32.672Z,30.34
2018-05-14T09:37:33.413Z,30.34
2018-05-14T09:38:34.153Z,30.51
2018-05-14T09:39:34.906Z,30.66
2018-05-14T09:40:35.649Z,30.68
2018-05-14T09:41:36.392Z,30.50
2018-05-14T09:42:37.135Z,30.61
2018-05-14T09:43:37.876Z,30.61
2018-05-14T09:44:38.669Z,30.55
2018-05-14T09:45:39.360Z,30.81
2018-05-14T09:46:40.115Z,30.48
2018-05-14T09:47:40.869Z,30.43
2018-05-14T09:48:41.613Z,30.39
2018-05-14T09:49:42.355Z,30.43
2018-05-14T09:50:43.098Z,30.21
2018-05-14T09:51:43.837Z,30.25
2018-05-14T09:52:44.583Z,30.15
2018-05-14T09:53:45.326Z,30.09
2018-05-14T09:54:46.067Z,30.24
2018-05-14T09:55:46.816Z,30.23
2018-05-14T09:56:47.558Z,30.55
2018-05-14T09:57:48.299Z,30.15
2018-05-14T09:58:49.042Z,30.24
2018-05-14T09:59:49.795Z,30.53
2018-05-14T10:00:50.537Z,30.50
2018-05-14T10:01:51.285Z,30.25
2018-05-14T10:02:52.025Z,30.37
2018-05-14T10:03:52.765Z,30.43
2018-05-14T10:04:53.504Z,30.75
2018-05-14T10:05:54.254Z,30.70
2018-05-14T10:06:54.993Z,30.43
2018-05-14T10:07:55.745Z,30.48
2018-05-14T10:08:56.495Z,30.50
2018-05-14T10:09:57.246Z,30.63
2018-05-14T10:10:57.986Z,30.62
2018-05-14T10:11:58.724Z,30.92
2018-05-14T10:12:59.471Z,31.00
2018-05-14T10:14:00.204Z,31.09
2018-05-14T10:15:00.955Z,31.49
2018-05-14T10:16:01.695Z,31.76
2018-05-14T10:17:02.444Z,31.64
2018-05-14T10:18:03.185Z,31.90
2018-05-14T10:19:03.925Z,31.87
2018-05-14T10:20:04.664Z,31.92
2018-05-14T10:21:05.402Z,32.09
2018-05-14T10:22:06.141Z,31.94
2018-05-14T10:23:06.881Z,32.15
2018-05-14T10:24:07.624Z,32.14
2018-05-14T10:25:08.363Z,32.34
2018-05-14T10:26:09.102Z,32.65
2018-05-14T10:27:09.847Z,32.75
2018-05-14T10:28:10.584Z,32.77
2018-05-14T10:29:11.326Z,32.83
2018-05-14T10:30:12.065Z,32.78
2018-05-14T10:31:12.817Z,32.48
2018-05-14T10:32:13.560Z,32.55
2018-05-14T10:33:14.300Z,32.49
2018-05-14T10:34:15.041Z,32.71
2018-05-14T10:35:15.780Z,32.65
2018-05-14T10:36:16.532Z,32.49
2018-05-14T10:37:17.280Z,32.27
2018-05-14T10:38:18.032Z,32.34
2018-05-14T10:39:18.784Z,32.56
2018-05-14T10:40:19.534Z,32.01
2018-05-14T10:41:20.287Z,32.52
2018-05-14T10:42:21.037Z,32.60
2018-05-14T10:43:21.777Z,32.73
2018-05-14T10:44:22.516Z,32.78
2018-05-14T10:45:23.255Z,32.85
2018-05-14T10:46:23.997Z,32.95
2018-05-14T10:47:24.733Z,32.65
2018-05-14T10:48:25.472Z,32.82
2018-05-14T10:49:26.212Z,32.96
2018-05-14T10:50:26.961Z,32.78
2018-05-14T10:51:27.702Z,32.53
2018-05-14T10:52:28.442Z,32.70
2018-05-14T10:53:29.184Z,32.29
2018-05-14T10:54:29.932Z,32.37
2018-05-14T10:55:30.670Z,32.07
2018-05-14T10:56:31.409Z,32.27
2018-05-14T10:57:32.147Z,32.56
2018-05-14T10:58:32.944Z,32.80
2018-05-14T10:59:33.634Z,32.56
2018-05-14T11:00:34.375Z,32.73
2018-05-14T11:01:35.111Z,32.82
2018-05-14T11:02:35.849Z,33.08
2018-05-14T11:03:36.588Z,33.12
2018-05-14T11:04:37.324Z,33.40
2018-05-14T11:05:38.066Z,33.30
2018-05-14T11:06:38.806Z,33.40
2018-05-14T11:07:39.545Z,33.11
2018-05-14T11:09:40.572Z,32.80
2018-05-14T11:10:41.411Z,33.14
2018-05-14T11:11:42.058Z,33.24
2018-05-14T11:12:42.811Z,33.52
2018-05-14T11:13:43.549Z,33.55
2018-05-14T11:14:44.289Z,33.27
2018-05-14T11:15:45.028Z,33.47
2018-05-14T11:16:45.764Z,33.08
2018-05-14T11:17:46.504Z,32.53
2018-05-14T11:18:47.257Z,32.55
2018-05-14T11:19:47.983Z,32.83
2018-05-14T11:20:48.723Z,32.43
2018-05-14T11:21:49.471Z,32.33
2018-05-14T11:22:50.210Z,30.91
2018-05-14T11:23:50.952Z,31.34
2018-05-14T11:24:51.690Z,31.77
2018-05-14T11:25:52.429Z,31.96
2018-05-14T11:26:53.176Z,32.45
2018-05-14T11:27:53.984Z,32.41
2018-05-14T11:28:54.641Z,32.97
2018-05-14T11:29:55.379Z,32.85
2018-05-14T11:30:56.117Z,33.09
2018-05-14T11:31:56.858Z,33.23
2018-05-14T11:32:57.605Z,32.93
2018-05-14T11:33:58.345Z,33.12
2018-05-14T11:34:59.083Z,32.75
2018-05-14T11:35:59.821Z,32.83
2018-05-14T11:37:00.561Z,33.19
2018-05-14T11:38:01.300Z,33.24
2018-05-14T11:39:02.048Z,32.95
2018-05-14T11:40:02.788Z,32.68
2018-05-14T11:41:03.528Z,32.78
2018-05-14T11:42:04.268Z,32.51
2018-05-14T11:43:05.008Z,32.83
2018-05-14T11:44:05.746Z,32.55
2018-05-14T11:45:06.489Z,32.38
2018-05-14T11:46:07.225Z,32.59
2018-05-14T11:47:07.964Z,32.80
2018-05-14T11:48:08.704Z,32.23
2018-05-14T11:49:09.441Z,32.11
2018-05-14T11:50:10.178Z,32.33
2018-05-14T11:51:10.917Z,31.39
2018-05-14T11:52:11.655Z,30.91
2018-05-14T11:53:12.392Z,30.44
2018-05-14T11:54:13.130Z,29.88
2018-05-14T11:55:13.870Z,30.03
2018-05-14T11:56:14.616Z,29.68
2018-05-14T11:57:15.353Z,30.16
2018-05-14T11:58:16.090Z,30.46
2018-05-14T11:59:16.829Z,30.94
2018-05-14T12:00:17.576Z,31.05
2018-05-14T12:01:18.315Z,31.61
2018-05-14T12:02:19.054Z,31.77
2018-05-14T12:03:19.788Z,31.94
2018-05-14T12:04:20.532Z,31.62
2018-05-14T12:05:21.264Z,31.76
2018-05-14T12:06:22.003Z,31.58
2018-05-14T12:07:22.747Z,31.94
2018-05-14T12:08:23.476Z,32.15
2018-05-14T12:09:24.211Z,31.18
2018-05-14T12:10:24.948Z,31.33
2018-05-14T12:11:25.686Z,31.69
2018-05-14T12:12:26.423Z,31.33
2018-05-14T12:13:27.160Z,31.52
2018-05-14T12:14:27.895Z,31.47
2018-05-14T12:15:28.632Z,30.91
2018-05-14T12:16:29.369Z,31.21
2018-05-14T12:17:30.107Z,31.49
2018-05-14T12:18:30.843Z,31.84
2018-05-14T12:19:31.578Z,32.14
2018-05-14T12:20:32.315Z,32.01
2018-05-14T12:21:33.055Z,32.04
2018-05-14T12:22:33.794Z,31.93
2018-05-14T12:23:34.547Z,31.29
2018-05-14T12:24:35.294Z,31.92
2018-05-14T12:25:36.043Z,31.93
2018-05-14T12:26:36.777Z,32.16
2018-05-14T12:27:37.515Z,32.15
2018-05-14T12:28:38.263Z,32.33
2018-05-14T12:29:39.013Z,31.92
2018-05-14T12:30:39.758Z,32.03
2018-05-14T12:31:40.512Z,32.09
2018-05-14T12:32:41.260Z,31.55
2018-05-14T12:33:41.994Z,31.69
2018-05-14T12:34:42.750Z,32.00
2018-05-14T12:35:43.489Z,32.48
2018-05-14T12:36:44.223Z,32.77
2018-05-14T12:37:44.978Z,32.73
2018-05-14T12:38:45.716Z,32.92
2018-05-14T12:39:46.457Z,33.09
2018-05-14T12:40:47.199Z,33.23
2018-05-14T12:41:47.951Z,33.53
2018-05-14T12:42:48.683Z,33.31
2018-05-14T12:43:49.421Z,33.57
2018-05-14T12:44:50.159Z,33.11
2018-05-14T12:45:50.910Z,31.96
2018-05-14T12:46:51.651Z,32.01
2018-05-14T12:47:52.388Z,31.97
2018-05-14T12:48:53.128Z,32.43
2018-05-14T12:49:53.868Z,32.48
2018-05-14T12:50:54.609Z,32.49
2018-05-14T12:51:55.435Z,32.53
2018-05-14T12:52:56.102Z,32.51
2018-05-14T12:53:56.848Z,32.52
2018-05-14T12:54:57.579Z,32.51
2018-05-14T12:55:58.328Z,32.60
2018-05-14T12:56:59.068Z,33.00
2018-05-14T12:57:59.804Z,33.34
2018-05-14T12:59:00.545Z,33.58
2018-05-14T13:00:01.293Z,33.81
2018-05-14T13:01:02.046Z,33.81
2018-05-14T13:02:02.782Z,33.84
2018-05-14T13:03:03.521Z,34.01